createdAt,value
2023-01-30T00:12:52.000Z,-0.94
2023-01-30T00:27:30.000Z,-0.77
2023-01-30T00:42:03.000Z,-0.7
2023-01-30T00:56:41.000Z,-0.69
2023-01-30T01:11:16.000Z,-0.55
2023-01-30T01:25:54.000Z,-0.49
2023-01-30T01:40:32.000Z,-0.36
2023-01-30T01:55:09.000Z,-0.26
2023-01-30T02:09:49.000Z,-0.16
2023-01-30T02:24:18.000Z,-0.13
2023-01-30T02:38:54.000Z,-0.07
2023-01-30T02:53:31.000Z,-0.02
2023-01-30T03:08:09.000Z,0.02
2023-01-30T03:22:45.000Z,0.07
2023-01-30T03:37:22.000Z,0.1
2023-01-30T03:51:57.000Z,0.19
2023-01-30T04:06:33.000Z,0.26
2023-01-30T04:21:11.000Z,0.27
2023-01-30T04:35:48.000Z,0.3
2023-01-30T04:50:25.000Z,0.26
2023-01-30T05:05:03.000Z,0.23
2023-01-30T05:19:43.000Z,0.23
2023-01-30T05:34:17.000Z,0.26
2023-01-30T05:48:55.000Z,0.32
2023-01-30T06:03:32.000Z,0.39
2023-01-30T06:18:10.000Z,0.54
2023-01-30T06:32:42.000Z,0.56
2023-01-30T06:47:19.000Z,0.43
2023-01-30T07:01:58.000Z,0.38
2023-01-30T07:16:34.000Z,0.5
2023-01-30T07:31:12.000Z,0.72
2023-01-30T07:45:42.000Z,0.92
2023-01-30T08:00:20.000Z,1.22
2023-01-30T08:14:54.000Z,1.23
2023-01-30T08:29:31.000Z,1.14
2023-01-30T08:44:10.000Z,1.34
2023-01-30T08:58:50.000Z,1.38
2023-01-30T09:13:27.000Z,1.45
2023-01-30T09:28:05.000Z,1.65
2023-01-30T09:42:43.000Z,1.54
2023-01-30T09:57:13.000Z,1.72
2023-01-30T10:11:50.000Z,1.95
2023-01-30T10:26:26.000Z,2.26
2023-01-30T10:41:04.000Z,2.68
2023-01-30T10:55:42.000Z,4.2
2023-01-30T11:10:26.000Z,3.84
2023-01-30T11:25:00.000Z,3.62
2023-01-30T11:39:37.000Z,3.49
2023-01-30T11:54:12.000Z,4.33
2023-01-30T12:08:52.000Z,5.23
2023-01-30T12:23:29.000Z,5.21
2023-01-30T12:38:09.000Z,5.66
2023-01-30T12:52:47.000Z,6.02
2023-01-30T13:07:24.000Z,5.85
2023-01-30T13:22:00.000Z,5.62
2023-01-30T13:36:37.000Z,5.57
2023-01-30T13:51:14.000Z,6.06
2023-01-30T14:05:56.000Z,6.03
2023-01-30T14:20:33.000Z,5.7
2023-01-30T14:35:10.000Z,5.6
2023-01-30T14:49:46.000Z,5.56
2023-01-30T15:04:23.000Z,5.41
2023-01-30T15:19:00.000Z,5.49
2023-01-30T15:33:38.000Z,5.83
2023-01-30T15:48:15.000Z,5.22
2023-01-30T16:02:53.000Z,5.02
2023-01-30T16:17:32.000Z,4.77
2023-01-30T16:32:09.000Z,4.77
2023-01-30T16:46:45.000Z,4.81
2023-01-30T17:01:22.000Z,4.78
2023-01-30T17:15:59.000Z,4.74
2023-01-30T17:30:38.000Z,4.68
2023-01-30T17:45:16.000Z,4.75
2023-01-30T17:59:54.000Z,4.75
2023-01-30T18:14:32.000Z,4.67
2023-01-30T18:29:10.000Z,4.78
2023-01-30T18:43:48.000Z,5.33
2023-01-30T18:58:24.000Z,4.59
2023-01-30T19:13:02.000Z,4.6
2023-01-30T19:27:39.000Z,4.58
2023-01-30T19:42:16.000Z,4.62
2023-01-30T19:56:54.000Z,4.54
2023-01-30T20:11:32.000Z,4.55
2023-01-30T20:26:10.000Z,4.6
2023-01-30T20:40:46.000Z,3.64
2023-01-30T20:55:22.000Z,3.48
2023-01-30T21:09:59.000Z,3.84
2023-01-30T21:24:35.000Z,3.67
2023-01-30T21:39:12.000Z,3.75
2023-01-30T21:53:49.000Z,3.63
2023-01-30T22:08:23.000Z,3.7
2023-01-30T22:23:01.000Z,3.67
2023-01-30T22:37:39.000Z,3.67
2023-01-30T22:52:12.000Z,3.45
2023-01-30T23:06:50.000Z,3.09
2023-01-30T23:21:26.000Z,3
2023-01-30T23:36:03.000Z,2.85
2023-01-30T23:50:35.000Z,2.56
